Bolen Town, South Carolina
Current Conditions -  °F | °C
As of 8:21 AM on Monday 22 Dec 2014 (Local Time) from KOGB Reporting Station
Overcast Overcast  
Wind Chill: 39°   Ceiling: 500
Heat Index: 44°   Visibility: 9mi
Dew Point: 41°   Wind: 10mph
Humidity: 89%   Direction: 40°NE
Pressure: 30.09"   Gusts: NA
Location:  33.4964°N, 80.8317°W
Report Text: KOGB 221321Z AUTO 04009KT 9SM OVC005 07/05 A3009 RMK AO2 RAE19 CIG 004V009 P0002 T00670050
Loading
Personal Weather Stations






























Interactive Weather Map New forecast layout! Learn more

10-Day Weather Forecast

Advertisements
Track Severe Weather on mobile